Главная страница
METAR-TAF:

METAR-TAF

Аэропорты :

Penn Valley Airport

Selinsgrove, Пенсильвания, США

широта: 40-49-09N, долгота: 076-51-58W, высота над уровнем моря: 137 м

Текущие метеонаблюдения

Эта сводка был подготовлена 45 минут назад, в 02:53 UTC
Штиль
Температура 12°C
Влажность 94%
Давление 1025 hPa
Видимость: 12.9 км
ясное небо

METAR: KSEG 250253Z AUTO 00000KT 8SM CLR 12/11 A3027 RMK AO2 SLP249 T01170111 51016

Время: 23:38 (03:38 UTC)


TAF: отсутствует

Метеонаблюдения и прогнозы для более 4000 аэропортов (сводки METAR и TAF).

Имеющиеся станции представлены на карте желтыми и красными точками.

Чтобы увидеть название станции, наведите на нее мышь.

Затем щелкните, чтобы увидеть метеонаблюдения и метеопрогнозы.

Управление картой: чтобы увеличить масштаб, щелкните зеленые кнопки с черным крестиком; чтобы уменьшить масштаб, щелкните зеленую кнопку с тире; для просмотра соседних карт щелкайте зеленые стрелки.


METAR-TAF: